Time;durP1;ratioP1;P1;durP2;ratioP2;P2;SDS_P1;SDS_P2;PMS_P1;PMS_P2;Temp;Humidity;BMP_temperature;BMP_pressure;BME280_temperature;BME280_humidity;BME280_pressure;Samples;Min_cycle;Max_cycle;Signal;HPM_P1;HPM_P2
2023/10/16 00:00:29;;;;;;;4.53;2.05;;;6.10;99.90;;;;;;2036715;29;20418;-83
2023/10/16 00:01:27;;;;;;;;;;;6.10;99.90;;;;;;2039272;29;20810;-83
2023/10/16 00:02:27;;;;;;;4.05;1.92;;;6.10;99.90;;;;;;2045655;28;20332;-84
2023/10/16 00:03:28;;;;;;;6.68;2.20;;;6.10;99.90;;;;;;2053426;28;20031;-83
2023/10/16 00:04:28;;;;;;;5.40;2.10;;;6.20;99.90;;;;;;2040788;28;20813;-82
2023/10/16 00:05:38;;;;;;;5.88;2.20;;;6.20;99.90;;;;;;2036848;28;20059;-83
2023/10/16 00:06:39;;;;;;;5.95;2.15;;;6.20;99.90;;;;;;2048783;28;20602;-83
2023/10/16 00:07:39;;;;;;;6.05;2.00;;;6.20;99.90;;;;;;2047314;28;20583;-84
2023/10/16 00:08:53;;;;;;;5.40;1.95;;;6.10;99.90;;;;;;2044927;29;20237;-85
2023/10/16 00:09:56;;;;;;;3.40;1.90;;;6.10;99.90;;;;;;2042063;28;20051;-84
2023/10/16 00:10:58;;;;;;;5.32;2.05;;;6.10;99.90;;;;;;2051942;28;20042;-85
2023/10/16 00:11:58;;;;;;;6.93;2.00;;;6.10;99.90;;;;;;2054732;28;20030;-85
2023/10/16 00:13:04;;;;;;;4.47;2.10;;;6.00;99.90;;;;;;2054111;28;20788;-85
2023/10/16 00:14:18;;;;;;;4.65;2.00;;;6.00;99.90;;;;;;2040869;29;20155;-84
2023/10/16 00:15:19;;;;;;;3.35;2.25;;;6.00;99.90;;;;;;2035788;29;20059;-84
2023/10/16 00:16:23;;;;;;;5.45;1.98;;;6.00;99.90;;;;;;2046643;28;20035;-84
2023/10/16 00:17:24;;;;;;;5.25;1.98;;;6.00;99.90;;;;;;2047477;28;20027;-84
2023/10/16 00:18:29;;;;;;;6.13;2.22;;;6.10;99.90;;;;;;2046857;28;20544;-85
2023/10/16 00:19:33;;;;;;;6.18;3.22;;;6.10;99.90;;;;;;2046736;28;20415;-84
2023/10/16 00:20:33;;;;;;;6.85;2.80;;;6.00;99.90;;;;;;2048563;28;20038;-85
2023/10/16 00:21:43;;;;;;;4.18;2.13;;;6.00;99.90;;;;;;2063219;28;20031;-84
2023/10/16 00:22:44;;;;;;;2.72;1.80;;;6.10;99.90;;;;;;2062373;28;20109;-86
2023/10/16 00:23:45;;;;;;;3.22;2.00;;;6.10;99.90;;;;;;2049516;28;20069;-84
2023/10/16 00:24:46;;;;;;;3.15;1.90;;;6.10;99.90;;;;;;2037722;29;20039;-83
2023/10/16 00:25:50;;;;;;;5.90;2.00;;;6.10;99.90;;;;;;2049330;28;20058;-83
2023/10/16 00:26:51;;;;;;;4.05;2.03;;;6.10;99.90;;;;;;2049502;28;20026;-83
2023/10/16 00:27:51;;;;;;;5.75;2.28;;;6.00;99.90;;;;;;2049913;28;20476;-84
2023/10/16 00:29:07;;;;;;;5.88;2.20;;;6.00;99.90;;;;;;2046076;28;20123;-84
2023/10/16 00:30:08;;;;;;;5.70;1.98;;;6.00;99.90;;;;;;2039295;29;20039;-85
2023/10/16 00:31:09;;;;;;;4.90;2.10;;;6.00;99.90;;;;;;2045276;28;20152;-84
2023/10/16 00:32:11;;;;;;;5.43;2.15;;;6.00;99.90;;;;;;2045547;28;20023;-84
2023/10/16 00:33:11;;;;;;;4.00;2.00;;;6.00;99.90;;;;;;2042550;28;20039;-84
2023/10/16 00:34:19;;;;;;;3.08;2.10;;;6.00;99.90;;;;;;2047674;28;20031;-84
2023/10/16 00:35:22;;;;;;;5.47;2.13;;;6.00;99.90;;;;;;2052846;28;20031;-86
2023/10/16 00:36:22;;;;;;;5.00;2.10;;;6.00;99.90;;;;;;2050481;28;20057;-86
2023/10/16 00:37:25;;;;;;;6.07;2.10;;;6.00;99.90;;;;;;2040611;29;20555;-85
2023/10/16 00:38:26;;;;;;;5.07;2.30;;;6.00;99.90;;;;;;2040844;28;20595;-84
2023/10/16 00:39:30;;;;;;;4.57;2.20;;;6.00;99.90;;;;;;2050268;28;20034;-85
2023/10/16 00:40:34;;;;;;;5.53;2.42;;;6.00;99.90;;;;;;2047835;28;20031;-84
2023/10/16 00:41:34;;;;;;;6.40;2.22;;;6.00;99.90;;;;;;2032661;29;20138;-83
2023/10/16 00:42:35;;;;;;;4.20;2.20;;;6.00;99.90;;;;;;2035407;29;20028;-84
2023/10/16 00:43:36;;;;;;;4.25;2.20;;;6.00;99.90;;;;;;2045389;28;20058;-83
2023/10/16 00:44:38;;;;;;;4.10;2.13;;;6.00;99.90;;;;;;2047402;28;20076;-84
2023/10/16 00:45:49;;;;;;;4.13;2.10;;;6.00;99.90;;;;;;2058748;28;20556;-84
2023/10/16 00:46:53;;;;;;;4.07;2.10;;;6.00;99.90;;;;;;2041239;29;20082;-83
2023/10/16 00:47:54;;;;;;;4.63;2.15;;;5.90;99.90;;;;;;2041454;28;20031;-83
2023/10/16 00:48:55;;;;;;;5.28;2.10;;;5.90;99.90;;;;;;2049494;28;20102;-85
2023/10/16 00:49:59;;;;;;;5.05;2.30;;;5.90;99.90;;;;;;2044693;28;20039;-84
2023/10/16 00:51:09;;;;;;;4.13;2.10;;;6.00;99.90;;;;;;2051046;28;20031;-84
2023/10/16 00:52:10;;;;;;;6.28;2.25;;;6.00;99.90;;;;;;2051124;28;20109;-81
2023/10/16 00:53:13;;;;;;;3.72;1.98;;;5.90;99.90;;;;;;2049325;28;20037;-83
2023/10/16 00:54:29;;;;;;;4.95;2.35;;;5.90;99.90;;;;;;2040677;29;20122;-83
2023/10/16 00:55:30;;;;;;;5.32;2.40;;;5.90;99.90;;;;;;2039617;28;20078;-84
2023/10/16 00:56:33;;;;;;;8.15;2.35;;;5.80;99.90;;;;;;2047347;28;20058;-84
2023/10/16 00:57:33;;;;;;;4.95;2.30;;;5.80;99.90;;;;;;2057348;28;20030;-83
2023/10/16 00:58:35;;;;;;;4.90;2.30;;;5.80;99.90;;;;;;2060387;28;20640;-83
2023/10/16 00:59:35;;;;;;;4.90;2.20;;;5.80;99.90;;;;;;2049252;28;20034;-82
2023/10/16 01:00:37;;;;;;;4.07;2.20;;;5.80;99.90;;;;;;2044750;28;20071;-84
2023/10/16 01:01:43;;;;;;;6.15;2.42;;;5.80;99.90;;;;;;2046086;28;20027;-83
2023/10/16 01:02:43;;;;;;;4.90;2.30;;;5.80;99.90;;;;;;2042241;28;20039;-84
2023/10/16 01:03:45;;;;;;;6.03;2.20;;;5.80;99.90;;;;;;2048109;28;20118;-86
2023/10/16 01:04:47;;;;;;;4.78;2.60;;;5.80;99.90;;;;;;2038143;28;20526;-85
2023/10/16 01:05:50;;;;;;;5.40;2.10;;;5.80;99.90;;;;;;2020753;29;20065;-85
2023/10/16 01:06:51;;;;;;;4.53;2.13;;;5.80;99.90;;;;;;2026487;29;20075;-84
2023/10/16 01:07:52;;;;;;;3.67;2.10;;;5.80;99.90;;;;;;2045675;28;20606;-82
2023/10/16 01:08:52;;;;;;;6.43;1.85;;;5.80;99.90;;;;;;2038125;28;20042;-81
2023/10/16 01:09:53;;;;;;;5.18;2.20;;;5.80;99.90;;;;;;2038364;29;20130;-83
2023/10/16 01:10:57;;;;;;;4.22;1.88;;;5.80;99.90;;;;;;2037444;29;20036;-85
2023/10/16 01:11:58;;;;;;;5.82;2.40;;;5.80;99.90;;;;;;2047290;28;20031;-82
2023/10/16 01:13:01;;;;;;;6.38;2.50;;;5.80;99.90;;;;;;2037088;29;20028;-83
2023/10/16 01:14:03;;;;;;;5.05;2.20;;;5.80;99.90;;;;;;2039122;28;20446;-82
2023/10/16 01:15:06;;;;;;;6.13;2.25;;;5.80;99.90;;;;;;2054844;28;20091;-83
2023/10/16 01:16:09;;;;;;;5.30;2.20;;;5.80;99.90;;;;;;2032894;29;20053;-84
2023/10/16 01:17:10;;;;;;;4.15;1.95;;;5.90;99.90;;;;;;2040520;29;20019;-83
2023/10/16 01:18:13;;;;;;;5.38;2.10;;;5.90;99.90;;;;;;2042906;29;20051;-86
2023/10/16 01:19:19;;;;;;;6.30;2.33;;;5.90;99.90;;;;;;2056369;28;20014;-84
2023/10/16 01:20:20;;;;;;;7.15;2.22;;;5.90;99.90;;;;;;2042505;28;20523;-83
2023/10/16 01:21:20;;;;;;;7.70;2.35;;;5.90;99.90;;;;;;2040314;29;20039;-83
2023/10/16 01:22:22;;;;;;;3.67;2.10;;;5.90;99.90;;;;;;2035898;29;20503;-83
2023/10/16 01:23:25;;;;;;;4.57;2.00;;;5.90;99.90;;;;;;2046185;29;20043;-84
2023/10/16 01:24:26;;;;;;;5.35;2.20;;;5.90;99.90;;;;;;2042917;28;20055;-84
2023/10/16 01:25:27;;;;;;;4.25;2.40;;;5.90;99.90;;;;;;2037365;29;20028;-84
2023/10/16 01:26:28;;;;;;;4.72;2.00;;;5.90;99.90;;;;;;2045425;28;20247;-84
2023/10/16 01:27:29;;;;;;;5.63;2.10;;;5.90;99.90;;;;;;2049380;28;20027;-83
2023/10/16 01:28:32;;;;;;;4.32;2.08;;;5.90;99.90;;;;;;2045399;28;20031;-85
2023/10/16 01:29:33;;;;;;;5.22;2.25;;;5.90;99.90;;;;;;2040468;28;20023;-84
2023/10/16 01:30:34;;;;;;;5.78;2.20;;;5.90;99.90;;;;;;2041864;28;20035;-86
2023/10/16 01:31:36;;;;;;;5.75;2.10;;;5.90;99.90;;;;;;2037475;29;20512;-84
2023/10/16 01:32:39;;;;;;;5.50;2.25;;;5.90;99.90;;;;;;2044980;28;20027;-83
2023/10/16 01:33:44;;;;;;;5.93;2.20;;;5.90;99.90;;;;;;2051252;28;20126;-85
2023/10/16 01:34:46;;;;;;;5.78;2.10;;;5.90;99.90;;;;;;2045053;28;20079;-84
2023/10/16 01:35:47;;;;;;;5.18;2.15;;;5.90;99.90;;;;;;2045794;28;20027;-85
2023/10/16 01:36:51;;;;;;;5.00;2.05;;;5.90;99.90;;;;;;2034692;29;20134;-87
2023/10/16 01:37:53;;;;;;;5.40;2.22;;;5.90;99.90;;;;;;2041301;28;20035;-84
2023/10/16 01:38:58;;;;;;;6.07;2.17;;;5.90;99.90;;;;;;2053950;28;20487;-83
2023/10/16 01:41:32;;;;;;;5.50;2.00;;;5.90;99.90;;;;;;2028455;29;20046;-85
2023/10/16 01:42:33;;;;;;;6.45;2.10;;;5.90;99.90;;;;;;2036882;28;20050;-84
2023/10/16 01:43:35;;;;;;;4.03;2.10;;;5.90;99.90;;;;;;2039257;28;20063;-84
2023/10/16 01:44:36;;;;;;;4.82;2.03;;;5.90;99.90;;;;;;2040152;29;20039;-84
2023/10/16 01:45:39;;;;;;;5.72;2.30;;;5.80;99.90;;;;;;2041343;29;20036;-84
2023/10/16 01:46:40;;;;;;;6.00;2.20;;;5.90;99.90;;;;;;2046994;28;20620;-84
2023/10/16 01:47:41;;;;;;;4.63;2.10;;;5.80;99.90;;;;;;2047855;28;20030;-85
2023/10/16 01:48:47;;;;;;;3.45;2.05;;;5.90;99.90;;;;;;2043439;29;20072;-85
2023/10/16 01:49:48;;;;;;;3.50;2.03;;;5.90;99.90;;;;;;2044819;28;20099;-84
2023/10/16 01:50:49;;;;;;;5.40;2.17;;;5.90;99.90;;;;;;2042681;28;20031;-85
2023/10/16 01:51:51;;;;;;;3.85;2.10;;;6.00;99.90;;;;;;2041408;29;20087;-86
2023/10/16 01:52:54;;;;;;;6.32;1.92;;;5.90;99.90;;;;;;2052771;28;20445;-82
2023/10/16 01:53:55;;;;;;;6.15;2.28;;;5.90;99.90;;;;;;2040815;29;20047;-86
2023/10/16 01:54:57;;;;;;;5.57;2.08;;;5.90;99.90;;;;;;2029478;29;20037;-86
2023/10/16 01:55:57;;;;;;;3.97;1.92;;;5.90;99.90;;;;;;2037177;28;20043;-84
2023/10/16 01:56:58;;;;;;;4.63;2.17;;;5.90;99.90;;;;;;2028788;29;20767;-84
2023/10/16 01:57:59;;;;;;;6.60;2.13;;;5.90;99.90;;;;;;2024894;29;20128;-85
2023/10/16 01:59:01;;;;;;;6.85;2.22;;;5.90;99.90;;;;;;2044871;28;20145;-88
2023/10/16 02:00:05;;;;;;;6.80;2.20;;;5.80;99.90;;;;;;2048076;28;20023;-85
2023/10/16 02:01:17;;;;;;;5.18;1.98;;;5.80;99.90;;;;;;2049908;28;20027;-85
2023/10/16 02:02:18;;;;;;;5.97;2.40;;;5.80;99.90;;;;;;2050927;28;20035;-85
2023/10/16 02:03:19;;;;;;;7.30;2.28;;;5.80;99.90;;;;;;2045543;28;20019;-83
2023/10/16 02:04:20;;;;;;;4.05;2.20;;;5.80;99.90;;;;;;2052178;28;20031;-85
2023/10/16 02:05:20;;;;;;;4.88;2.00;;;5.80;99.90;;;;;;2044483;28;20089;-82
2023/10/16 02:06:21;;;;;;;5.10;2.25;;;5.80;99.90;;;;;;2031426;29;20028;-83
2023/10/16 02:07:23;;;;;;;4.05;1.80;;;5.80;99.90;;;;;;2044744;28;20031;-84
2023/10/16 02:08:24;;;;;;;4.68;2.20;;;5.70;99.90;;;;;;2048329;28;20066;-84
2023/10/16 02:09:25;;;;;;;4.65;2.25;;;5.80;99.90;;;;;;2039104;29;20042;-84
2023/10/16 02:10:26;;;;;;;4.13;2.20;;;5.80;99.90;;;;;;2036842;29;20047;-85
2023/10/16 02:11:26;;;;;;;6.47;2.05;;;5.70;99.90;;;;;;2040641;28;20062;-84
2023/10/16 02:12:28;;;;;;;6.13;2.30;;;5.70;99.90;;;;;;2054446;28;20039;-84
2023/10/16 02:13:31;;;;;;;4.32;2.20;;;5.70;99.90;;;;;;2055216;28;20044;-78
2023/10/16 02:14:37;;;;;;;7.78;2.03;;;5.70;99.90;;;;;;2050284;28;20037;-77
2023/10/16 02:15:38;;;;;;;6.78;2.10;;;5.70;99.90;;;;;;2041697;28;20086;-77
2023/10/16 02:16:41;;;;;;;7.45;2.30;;;5.80;99.90;;;;;;2041931;28;20036;-77
2023/10/16 02:17:42;;;;;;;4.75;2.05;;;5.70;99.90;;;;;;2051959;28;20077;-78
2023/10/16 02:18:45;;;;;;;7.43;2.10;;;5.70;99.90;;;;;;2046950;28;20040;-78
2023/10/16 02:19:47;;;;;;;3.92;2.05;;;5.70;99.90;;;;;;2048080;28;20031;-78
2023/10/16 02:20:49;;;;;;;5.45;2.22;;;5.70;99.90;;;;;;2052911;28;20097;-79
2023/10/16 02:21:50;;;;;;;4.53;2.10;;;5.70;99.90;;;;;;2049346;28;20101;-78
2023/10/16 02:22:50;;;;;;;4.25;2.30;;;5.70;99.90;;;;;;2049960;28;20496;-78
2023/10/16 02:23:51;;;;;;;4.68;1.90;;;5.70;99.90;;;;;;2045410;28;20034;-78
2023/10/16 02:24:52;;;;;;;6.07;2.10;;;5.70;99.90;;;;;;2042087;28;20023;-78
2023/10/16 02:25:53;;;;;;;5.53;2.45;;;5.70;99.90;;;;;;2043030;28;20034;-79
2023/10/16 02:26:56;;;;;;;3.97;2.03;;;5.70;99.90;;;;;;2046391;28;20046;-79
2023/10/16 02:27:58;;;;;;;5.18;2.28;;;5.70;99.90;;;;;;2038384;28;20036;-77
2023/10/16 02:29:00;;;;;;;5.80;2.15;;;5.70;99.90;;;;;;2042135;28;20028;-79
2023/10/16 02:30:15;;;;;;;7.03;2.10;;;5.70;99.90;;;;;;2034187;28;20071;-78
2023/10/16 02:31:19;;;;;;;7.20;2.20;;;5.60;99.90;;;;;;2049935;28;20470;-78
2023/10/16 02:32:22;;;;;;;4.88;2.15;;;5.70;99.90;;;;;;2043588;28;20067;-77
2023/10/16 02:33:28;;;;;;;5.30;2.13;;;5.60;99.90;;;;;;2034099;29;20158;-77
2023/10/16 02:34:28;;;;;;;4.82;2.00;;;5.60;99.90;;;;;;2042144;28;20637;-78
2023/10/16 02:35:29;;;;;;;5.22;2.03;;;5.60;99.90;;;;;;2045896;28;20054;-78
2023/10/16 02:36:31;;;;;;;5.43;2.10;;;5.60;99.90;;;;;;2026204;29;20127;-77
2023/10/16 02:37:31;;;;;;;8.38;2.30;;;5.60;99.90;;;;;;2030396;29;20027;-79
2023/10/16 02:38:32;;;;;;;6.47;2.15;;;5.60;99.90;;;;;;2029997;29;20464;-79
2023/10/16 02:39:41;;;;;;;6.88;2.00;;;5.60;99.90;;;;;;2031088;29;20039;-78
2023/10/16 02:40:44;;;;;;;5.65;2.20;;;5.60;99.90;;;;;;2042917;29;20067;-79
2023/10/16 02:41:45;;;;;;;5.18;2.00;;;5.60;99.90;;;;;;2040238;28;20107;-77
2023/10/16 02:42:51;;;;;;;7.78;2.40;;;5.50;99.90;;;;;;2028847;29;20832;-78
2023/10/16 02:43:53;;;;;;;5.38;2.10;;;5.60;99.90;;;;;;2030448;29;20016;-78
2023/10/16 02:44:54;;;;;;;5.65;2.15;;;5.60;99.90;;;;;;2022295;29;20059;-77
2023/10/16 02:45:55;;;;;;;6.53;2.10;;;5.60;99.90;;;;;;2022331;29;20113;-77
2023/10/16 02:46:57;;;;;;;5.43;2.30;;;5.60;99.90;;;;;;2027562;29;20024;-77
2023/10/16 02:47:57;;;;;;;4.80;2.00;;;5.50;99.90;;;;;;2035394;29;20103;-76
2023/10/16 02:48:58;;;;;;;6.50;2.17;;;5.60;99.90;;;;;;2027827;29;20040;-76
2023/10/16 02:49:59;;;;;;;5.32;2.03;;;5.60;99.90;;;;;;2043657;29;20026;-77
2023/10/16 02:51:02;;;;;;;4.70;2.10;;;5.60;99.90;;;;;;2032010;29;20118;-77
2023/10/16 02:52:06;;;;;;;5.75;1.92;;;5.60;99.90;;;;;;2031675;29;20036;-77
2023/10/16 02:53:07;;;;;;;4.68;2.15;;;5.60;99.90;;;;;;2041102;29;20031;-77
2023/10/16 02:54:08;;;;;;;6.38;2.00;;;5.60;99.90;;;;;;2040012;29;20045;-77
2023/10/16 02:55:11;;;;;;;5.40;1.80;;;5.60;99.90;;;;;;2040015;29;20045;-77
2023/10/16 02:56:17;;;;;;;4.68;1.85;;;5.60;99.90;;;;;;2043707;29;20174;-77
2023/10/16 02:57:19;;;;;;;6.78;2.30;;;5.60;99.90;;;;;;2032752;29;20108;-77
2023/10/16 02:58:22;;;;;;;5.05;2.05;;;5.50;99.90;;;;;;2031932;29;20020;-79
2023/10/16 02:59:24;;;;;;;7.90;2.30;;;5.50;99.90;;;;;;2030973;29;20573;-78
2023/10/16 03:00:26;;;;;;;5.18;1.90;;;5.50;99.90;;;;;;2028030;29;20024;-77
2023/10/16 03:01:27;;;;;;;8.10;2.28;;;5.60;99.90;;;;;;2035676;29;20115;-77
2023/10/16 03:02:28;;;;;;;8.13;2.22;;;5.60;99.90;;;;;;2039351;29;20016;-78
2023/10/16 03:03:28;;;;;;;4.63;1.85;;;5.60;99.90;;;;;;2031585;29;20574;-78
2023/10/16 03:04:29;;;;;;;6.07;2.28;;;5.50;99.90;;;;;;2039965;29;20071;-79
2023/10/16 03:05:30;;;;;;;7.15;2.10;;;5.50;99.90;;;;;;2031466;29;20549;-78
2023/10/16 03:06:31;;;;;;;8.35;2.30;;;5.50;99.90;;;;;;2039552;29;20832;-77
2023/10/16 03:07:31;;;;;;;6.85;2.15;;;5.60;99.90;;;;;;2047663;28;20090;-77
2023/10/16 03:08:32;;;;;;;5.50;2.25;;;5.60;99.90;;;;;;2031637;29;20070;-77
2023/10/16 03:09:33;;;;;;;5.95;2.20;;;5.60;99.90;;;;;;2032446;29;20111;-77
2023/10/16 03:10:36;;;;;;;5.70;1.95;;;5.50;99.90;;;;;;2035473;29;20043;-77
2023/10/16 03:11:37;;;;;;;7.75;2.10;;;5.50;99.90;;;;;;2032982;29;20439;-76
2023/10/16 03:12:37;;;;;;;8.10;2.10;;;5.50;99.90;;;;;;2036102;29;20027;-78
2023/10/16 03:13:38;;;;;;;5.15;2.05;;;5.50;99.90;;;;;;2030949;29;20516;-76
2023/10/16 03:14:45;;;;;;;5.03;2.15;;;5.50;99.90;;;;;;2032174;29;20047;-77
2023/10/16 03:15:46;;;;;;;5.32;2.08;;;5.50;99.90;;;;;;2032798;29;20040;-76
2023/10/16 03:16:48;;;;;;;5.50;2.00;;;5.50;99.90;;;;;;2034085;29;20054;-77
2023/10/16 03:17:51;;;;;;;5.50;2.00;;;5.50;99.90;;;;;;2032585;29;20051;-77
2023/10/16 03:19:03;;;;;;;5.50;2.25;;;5.50;99.90;;;;;;2031602;29;20028;-77
2023/10/16 03:20:09;;;;;;;4.72;2.05;;;5.60;99.90;;;;;;2029088;29;20036;-79
2023/10/16 03:22:12;;;;;;;7.35;2.15;;;5.50;99.90;;;;;;2033663;29;20035;-79
2023/10/16 03:23:14;;;;;;;5.30;2.05;;;5.50;99.90;;;;;;2033578;29;20059;-78
2023/10/16 03:24:15;;;;;;;7.45;2.58;;;5.50;99.90;;;;;;2035645;29;20024;-79
2023/10/16 03:26:42;;;;;;;6.55;2.10;;;5.50;99.90;;;;;;2026723;29;20051;-78
2023/10/16 03:27:44;;;;;;;6.95;2.40;;;5.50;99.90;;;;;;2033912;29;20036;-78
2023/10/16 03:28:44;;;;;;;5.05;2.25;;;5.50;99.90;;;;;;2039949;29;20106;-79
2023/10/16 03:29:45;;;;;;;5.75;2.25;;;5.50;99.90;;;;;;2041857;29;20043;-78
2023/10/16 03:30:45;;;;;;;5.10;2.30;;;5.50;99.90;;;;;;2043994;29;20042;-78
2023/10/16 03:31:46;;;;;;;5.93;2.40;;;5.50;99.90;;;;;;2033292;29;20047;-79
2023/10/16 03:32:49;;;;;;;4.95;2.13;;;5.50;99.90;;;;;;2026889;29;20044;-78
2023/10/16 03:33:51;;;;;;;4.50;2.15;;;5.50;99.90;;;;;;2040155;29;20035;-79
2023/10/16 03:34:52;;;;;;;4.90;2.05;;;5.50;99.90;;;;;;2052041;28;20039;-79
2023/10/16 03:35:52;;;;;;;6.57;2.17;;;5.50;99.90;;;;;;2044086;28;20707;-79
2023/10/16 03:37:00;;;;;;;5.20;2.00;;;5.50;99.90;;;;;;2050627;28;20035;-79
2023/10/16 03:38:20;;;;;;;7.30;2.28;;;5.50;99.90;;;;;;2052514;28;20606;-78
2023/10/16 03:39:20;;;;;;;6.03;2.00;;;5.50;99.90;;;;;;2050269;28;20056;-78
2023/10/16 03:40:24;;;;;;;7.00;2.10;;;5.50;99.90;;;;;;2052350;28;20035;-79
2023/10/16 03:41:32;;;;;;;4.43;2.30;;;5.40;99.90;;;;;;2059518;28;20037;-78
2023/10/16 03:42:32;;;;;;;6.43;2.58;;;5.40;99.90;;;;;;2045062;28;20039;-77
2023/10/16 03:43:33;;;;;;;6.60;2.53;;;5.40;99.90;;;;;;2052500;28;20069;-78
2023/10/16 03:44:34;;;;;;;5.57;2.10;;;5.40;99.90;;;;;;2051659;28;20026;-78
2023/10/16 03:45:39;;;;;;;5.93;2.10;;;5.40;99.90;;;;;;2051069;28;20034;-77
2023/10/16 03:46:41;;;;;;;5.88;2.00;;;5.50;99.90;;;;;;2051632;28;20101;-76
2023/10/16 03:47:42;;;;;;;3.50;2.10;;;5.50;99.90;;;;;;2051475;28;20104;-76
2023/10/16 03:48:44;;;;;;;5.32;2.10;;;5.40;99.90;;;;;;2046212;28;20546;-78
2023/10/16 03:49:46;;;;;;;4.70;2.17;;;5.40;99.90;;;;;;2053587;28;20054;-78
2023/10/16 03:50:46;;;;;;;5.15;2.05;;;5.40;99.90;;;;;;2049558;28;20038;-77
2023/10/16 03:51:48;;;;;;;7.18;2.40;;;5.40;99.90;;;;;;2046537;29;20090;-79
2023/10/16 03:52:49;;;;;;;4.43;2.20;;;5.40;99.90;;;;;;2056107;28;20023;-78
2023/10/16 03:53:55;;;;;;;7.72;2.40;;;5.50;99.90;;;;;;2057121;28;20034;-79
2023/10/16 03:54:57;;;;;;;5.85;2.10;;;5.50;99.90;;;;;;2055089;28;20041;-77
2023/10/16 03:55:58;;;;;;;5.60;2.10;;;5.50;99.90;;;;;;2054920;28;20027;-78
2023/10/16 03:57:03;;;;;;;5.68;2.08;;;5.40;99.90;;;;;;2045440;28;20035;-78
2023/10/16 03:58:04;;;;;;;6.38;2.22;;;5.50;99.90;;;;;;2046665;28;20019;-78
2023/10/16 03:59:05;;;;;;;7.38;2.50;;;5.50;99.90;;;;;;2050787;28;20043;-77
2023/10/16 04:00:16;;;;;;;6.53;2.00;;;5.50;99.90;;;;;;2051716;28;20035;-77
2023/10/16 04:01:28;;;;;;;;;;;5.50;99.90;;;;;;2045799;28;20454;-79
2023/10/16 04:02:31;;;;;;;5.30;1.85;;;5.50;99.90;;;;;;2044411;28;20331;-78
2023/10/16 04:03:46;;;;;;;6.97;2.33;;;5.50;99.90;;;;;;2054415;28;20128;-77
2023/10/16 04:04:46;;;;;;;5.85;2.25;;;5.50;99.90;;;;;;2051037;28;20591;-78
2023/10/16 04:05:47;;;;;;;6.38;2.22;;;5.50;99.90;;;;;;2045182;28;20035;-78
2023/10/16 04:06:48;;;;;;;5.82;2.22;;;5.60;99.90;;;;;;2047773;28;20047;-79
2023/10/16 04:07:49;;;;;;;6.53;2.15;;;5.50;99.90;;;;;;2045724;28;20058;-78
2023/10/16 04:08:51;;;;;;;7.07;2.33;;;5.50;99.90;;;;;;2045819;28;20618;-77
2023/10/16 04:09:52;;;;;;;6.22;2.33;;;5.50;99.90;;;;;;2049907;28;20027;-78
2023/10/16 04:10:53;;;;;;;6.47;2.40;;;5.50;99.90;;;;;;2044917;28;20031;-78
2023/10/16 04:11:54;;;;;;;5.72;2.30;;;5.50;99.90;;;;;;2048063;28;20027;-76
2023/10/16 04:12:55;;;;;;;5.78;2.53;;;5.60;99.90;;;;;;2047467;28;20023;-77
2023/10/16 04:13:56;;;;;;;9.00;2.30;;;5.50;99.90;;;;;;2047235;28;20041;-78
2023/10/16 04:15:03;;;;;;;4.90;2.25;;;5.50;99.90;;;;;;2047043;28;20034;-77
2023/10/16 04:17:10;;;;;;;5.68;2.63;;;5.50;99.90;;;;;;2051085;28;20042;-77
2023/10/16 04:18:27;;;;;;;7.15;2.70;;;5.50;99.90;;;;;;2062951;28;20555;-78
2023/10/16 04:19:35;;;;;;;6.95;2.47;;;5.50;99.90;;;;;;2054959;28;20540;-77
2023/10/16 04:20:44;;;;;;;6.28;2.50;;;5.50;99.90;;;;;;2048011;28;20043;-79
2023/10/16 04:22:08;;;;;;;8.20;2.47;;;5.50;99.90;;;;;;2051817;28;20046;-78
2023/10/16 04:23:29;;;;;;;6.90;2.60;;;5.50;99.90;;;;;;2041465;28;20057;-78
2023/10/16 04:26:28;;;;;;;7.28;2.60;;;5.50;99.90;;;;;;2052083;28;20035;-77
2023/10/16 04:26:57;;;;;;;12.07;2.83;;;5.60;99.90;;;;;;2049945;28;20039;-84
2023/10/16 04:28:18;;;;;;;9.77;2.80;;;5.50;99.90;;;;;;2051192;28;20034;-83
2023/10/16 04:31:43;;;;;;;7.53;2.50;;;5.60;99.90;;;;;;2044985;28;20019;-79
2023/10/16 04:32:56;;;;;;;6.35;2.60;;;5.60;99.90;;;;;;2048448;28;20141;-77
2023/10/16 04:34:13;;;;;;;5.78;2.53;;;5.60;99.90;;;;;;2050570;28;20034;-76
2023/10/16 04:37:55;;;;;;;7.63;2.92;;;5.60;99.90;;;;;;2050031;28;20035;-76
2023/10/16 04:38:55;;;;;;;7.07;2.63;;;5.60;99.90;;;;;;2035425;29;20523;-77
2023/10/16 04:42:49;;;;;;;;;;;5.60;99.90;;;;;;2046848;28;20031;-77
2023/10/16 04:46:20;;;;;;;6.28;2.65;;;5.50;99.90;;;;;;2046251;28;20042;-71
2023/10/16 04:47:24;;;;;;;6.05;2.70;;;5.50;99.90;;;;;;2044628;28;20034;-73
2023/10/16 04:49:59;;;;;;;6.45;2.53;;;5.50;99.90;;;;;;2048145;28;20478;-72
2023/10/16 04:51:09;;;;;;;8.77;2.80;;;5.50;99.90;;;;;;2040487;28;20126;-73
2023/10/16 04:52:35;;;;;;;8.95;2.83;;;5.50;99.90;;;;;;2047026;28;20718;-73
2023/10/16 04:53:30;;;;;;;7.47;2.90;;;5.50;99.90;;;;;;2046568;28;20035;-72
2023/10/16 04:59:47;;;;;;;10.38;2.90;;;5.50;99.90;;;;;;2043849;28;20030;-73
2023/10/16 05:02:18;;;;;;;7.35;2.80;;;5.50;99.90;;;;;;2042026;28;20031;-73
2023/10/16 05:03:23;;;;;;;6.43;2.65;;;5.50;99.90;;;;;;2039748;29;20026;-73
2023/10/16 05:05:56;;;;;;;7.80;2.95;;;5.50;99.90;;;;;;2044609;28;20037;-73
2023/10/16 05:07:06;;;;;;;7.20;2.80;;;5.50;99.90;;;;;;2049822;28;20034;-73
2023/10/16 05:08:31;;;;;;;6.00;2.85;;;5.50;99.90;;;;;;2050759;28;20030;-73
2023/10/16 05:18:43;;;;;;;7.88;3.22;;;5.50;99.90;;;;;;2045238;28;20034;-73
2023/10/16 05:19:46;;;;;;;6.53;2.72;;;5.50;99.90;;;;;;2050712;28;20099;-74
2023/10/16 05:21:16;;;;;;;9.30;2.75;;;5.50;99.90;;;;;;2046610;28;20070;-73
2023/10/16 06:15:08;;;;;;;11.13;3.60;;;5.70;99.90;;;;;;2049031;28;20030;-78
2023/10/16 06:16:18;;;;;;;6.65;3.50;;;5.70;99.90;;;;;;2049779;28;20030;-72
2023/10/16 06:17:19;;;;;;;10.77;3.60;;;5.70;99.90;;;;;;2044518;28;20045;-71
2023/10/16 06:18:20;;;;;;;7.97;3.20;;;5.70;99.90;;;;;;2050616;28;20397;-71
2023/10/16 06:19:24;;;;;;;9.18;3.20;;;5.70;99.90;;;;;;2049754;28;20031;-74
2023/10/16 06:20:25;;;;;;;8.13;3.33;;;5.70;99.90;;;;;;2049595;28;20031;-73
2023/10/16 06:21:26;;;;;;;11.23;3.97;;;5.80;99.90;;;;;;2046245;28;20035;-73
2023/10/16 06:22:26;;;;;;;7.60;3.10;;;5.70;99.90;;;;;;2043266;28;20570;-75
2023/10/16 06:23:32;;;;;;;7.50;3.40;;;5.80;99.90;;;;;;2047300;28;20056;-75
2023/10/16 06:24:33;;;;;;;7.47;3.10;;;5.80;99.90;;;;;;2045330;28;20503;-76
2023/10/16 06:25:37;;;;;;;7.28;2.80;;;5.80;99.90;;;;;;2047134;28;20120;-75
2023/10/16 06:26:38;;;;;;;7.90;3.00;;;5.80;99.90;;;;;;2045843;28;20769;-74
2023/10/16 06:27:41;;;;;;;8.80;3.20;;;5.80;99.90;;;;;;2043087;28;20027;-75
2023/10/16 06:28:49;;;;;;;6.78;2.70;;;5.80;99.90;;;;;;2051336;28;20042;-74
2023/10/16 06:29:50;;;;;;;8.65;3.10;;;5.80;99.90;;;;;;2046893;28;20113;-75
2023/10/16 06:30:51;;;;;;;7.75;3.00;;;5.80;99.90;;;;;;2035696;28;20035;-74
2023/10/16 06:31:58;;;;;;;7.90;3.00;;;5.80;99.90;;;;;;2049788;28;20033;-75
2023/10/16 06:33:02;;;;;;;8.48;3.13;;;5.90;99.90;;;;;;2043715;28;20098;-75
2023/10/16 06:34:05;;;;;;;5.28;3.00;;;5.90;99.90;;;;;;2045993;28;20031;-76
2023/10/16 06:35:08;;;;;;;7.88;3.13;;;5.90;99.90;;;;;;2042340;29;20047;-75
2023/10/16 06:36:10;;;;;;;7.32;3.50;;;5.90;99.90;;;;;;2040111;29;20043;-75
2023/10/16 06:37:16;;;;;;;7.55;3.25;;;5.90;99.90;;;;;;2042698;29;20038;-74
2023/10/16 06:38:20;;;;;;;7.50;3.05;;;6.00;99.90;;;;;;2043102;29;20043;-75
2023/10/16 06:39:28;;;;;;;6.82;2.90;;;6.00;99.90;;;;;;2043661;28;20027;-75
2023/10/16 06:40:32;;;;;;;7.68;3.10;;;6.00;99.90;;;;;;2041124;29;20570;-74
2023/10/16 06:41:33;;;;;;;9.27;3.40;;;6.00;99.90;;;;;;2035705;29;20126;-74
2023/10/16 06:42:34;;;;;;;7.03;2.83;;;6.00;99.90;;;;;;2035367;29;20103;-73
2023/10/16 06:43:35;;;;;;;9.43;3.45;;;6.10;99.90;;;;;;2036479;29;20032;-74
2023/10/16 06:44:36;;;;;;;7.97;2.80;;;6.10;99.90;;;;;;2050854;28;20046;-73
2023/10/16 06:45:55;;;;;;;8.63;3.20;;;6.10;99.90;;;;;;2051715;28;20505;-73
2023/10/16 06:47:00;;;;;;;5.63;3.00;;;6.10;99.90;;;;;;2043296;28;20509;-73
2023/10/16 06:48:08;;;;;;;8.50;3.60;;;6.10;99.90;;;;;;2040834;28;20483;-74
2023/10/16 06:49:09;;;;;;;9.65;3.13;;;6.10;99.90;;;;;;2020504;29;20029;-75
2023/10/16 06:51:25;;;;;;;7.28;3.05;;;6.10;99.90;;;;;;2036032;29;20102;-74
2023/10/16 06:52:26;;;;;;;8.73;3.33;;;6.20;99.90;;;;;;2040782;28;20602;-74
2023/10/16 06:53:27;;;;;;;7.55;3.05;;;6.20;99.90;;;;;;2039325;28;20059;-75
2023/10/16 06:54:27;;;;;;;7.00;3.00;;;6.20;99.90;;;;;;2043230;28;20047;-74
2023/10/16 06:55:28;;;;;;;9.15;3.25;;;6.20;99.90;;;;;;2051705;28;20418;-74
2023/10/16 06:56:32;;;;;;;12.60;3.13;;;6.20;99.90;;;;;;2047745;28;20031;-72
2023/10/16 06:57:32;;;;;;;11.35;3.40;;;6.30;99.90;;;;;;2049113;28;20534;-73
2023/10/16 06:58:34;;;;;;;8.52;3.22;;;6.30;99.90;;;;;;2049438;28;20675;-73
2023/10/16 06:59:34;;;;;;;9.10;3.08;;;6.30;99.90;;;;;;2044976;28;20031;-73
2023/10/16 07:00:38;;;;;;;7.30;3.25;;;6.30;99.90;;;;;;2047495;28;20031;-72
2023/10/16 07:01:40;;;;;;;8.68;3.33;;;6.30;99.90;;;;;;2038317;29;20166;-73
2023/10/16 07:02:42;;;;;;;6.72;2.78;;;6.30;99.90;;;;;;2043431;28;20043;-73
2023/10/16 07:03:43;;;;;;;9.07;3.20;;;6.30;99.90;;;;;;2046896;28;20573;-75